sensor_id;sensor_type;location;lat;lon;timestamp;P1;durP1;ratioP1;P2;durP2;ratioP2
54191;SDS011;40101;53.002;6.488;2023-07-31T00:01:21;4.10;;;3.63;;
54191;SDS011;40101;53.002;6.488;2023-07-31T00:03:47;6.38;;;3.40;;
54191;SDS011;40101;53.002;6.488;2023-07-31T00:06:12;4.90;;;3.47;;
54191;SDS011;40101;53.002;6.488;2023-07-31T00:08:38;6.65;;;3.70;;
54191;SDS011;40101;53.002;6.488;2023-07-31T00:11:04;6.43;;;3.95;;
54191;SDS011;40101;53.002;6.488;2023-07-31T00:13:29;6.07;;;3.80;;
54191;SDS011;40101;53.002;6.488;2023-07-31T00:15:55;6.65;;;4.00;;
54191;SDS011;40101;53.002;6.488;2023-07-31T00:18:20;4.80;;;4.10;;
54191;SDS011;40101;53.002;6.488;2023-07-31T00:20:46;6.95;;;4.32;;
54191;SDS011;40101;53.002;6.488;2023-07-31T00:23:12;4.07;;;3.67;;
54191;SDS011;40101;53.002;6.488;2023-07-31T00:25:38;5.65;;;3.42;;
54191;SDS011;40101;53.002;6.488;2023-07-31T00:28:03;5.43;;;3.70;;
54191;SDS011;40101;53.002;6.488;2023-07-31T00:30:29;4.97;;;4.40;;
54191;SDS011;40101;53.002;6.488;2023-07-31T00:32:55;5.43;;;3.63;;
54191;SDS011;40101;53.002;6.488;2023-07-31T00:35:21;5.28;;;3.92;;
54191;SDS011;40101;53.002;6.488;2023-07-31T00:37:46;4.38;;;3.47;;
54191;SDS011;40101;53.002;6.488;2023-07-31T00:40:12;5.70;;;4.45;;
54191;SDS011;40101;53.002;6.488;2023-07-31T00:42:39;4.97;;;3.72;;
54191;SDS011;40101;53.002;6.488;2023-07-31T00:45:04;4.55;;;3.90;;
54191;SDS011;40101;53.002;6.488;2023-07-31T00:47:30;9.90;;;4.03;;
54191;SDS011;40101;53.002;6.488;2023-07-31T00:49:56;6.25;;;3.60;;
54191;SDS011;40101;53.002;6.488;2023-07-31T00:52:22;6.35;;;3.85;;
54191;SDS011;40101;53.002;6.488;2023-07-31T00:54:48;4.80;;;3.83;;
54191;SDS011;40101;53.002;6.488;2023-07-31T00:57:14;7.05;;;3.92;;
54191;SDS011;40101;53.002;6.488;2023-07-31T00:59:40;4.13;;;3.53;;
54191;SDS011;40101;53.002;6.488;2023-07-31T01:02:06;5.25;;;3.50;;
54191;SDS011;40101;53.002;6.488;2023-07-31T01:04:31;3.80;;;3.40;;
54191;SDS011;40101;53.002;6.488;2023-07-31T01:12:15;3.15;;;2.70;;
54191;SDS011;40101;53.002;6.488;2023-07-31T01:15:04;3.22;;;2.70;;
54191;SDS011;40101;53.002;6.488;2023-07-31T01:17:31;3.35;;;2.35;;
54191;SDS011;40101;53.002;6.488;2023-07-31T01:19:59;4.50;;;2.40;;
54191;SDS011;40101;53.002;6.488;2023-07-31T01:22:48;2.63;;;1.88;;
54191;SDS011;40101;53.002;6.488;2023-07-31T01:28:11;2.50;;;1.88;;
54191;SDS011;40101;53.002;6.488;2023-07-31T01:30:41;2.85;;;1.55;;
54191;SDS011;40101;53.002;6.488;2023-07-31T01:33:12;1.08;;;0.98;;
54191;SDS011;40101;53.002;6.488;2023-07-31T01:35:39;1.30;;;1.20;;
54191;SDS011;40101;53.002;6.488;2023-07-31T01:38:05;2.47;;;0.75;;
54191;SDS011;40101;53.002;6.488;2023-07-31T01:40:31;1.75;;;0.80;;
54191;SDS011;40101;53.002;6.488;2023-07-31T01:42:56;0.95;;;0.80;;
54191;SDS011;40101;53.002;6.488;2023-07-31T01:45:22;2.63;;;0.68;;
54191;SDS011;40101;53.002;6.488;2023-07-31T01:47:47;1.35;;;0.65;;
54191;SDS011;40101;53.002;6.488;2023-07-31T01:50:13;1.30;;;0.82;;
54191;SDS011;40101;53.002;6.488;2023-07-31T01:52:39;1.10;;;0.60;;
54191;SDS011;40101;53.002;6.488;2023-07-31T01:55:04;1.10;;;0.80;;
54191;SDS011;40101;53.002;6.488;2023-07-31T01:57:30;1.23;;;0.85;;
54191;SDS011;40101;53.002;6.488;2023-07-31T01:59:56;2.88;;;1.02;;
54191;SDS011;40101;53.002;6.488;2023-07-31T02:02:22;0.70;;;0.65;;
54191;SDS011;40101;53.002;6.488;2023-07-31T02:04:48;0.50;;;0.40;;
54191;SDS011;40101;53.002;6.488;2023-07-31T02:07:14;1.02;;;0.60;;
54191;SDS011;40101;53.002;6.488;2023-07-31T02:09:39;1.30;;;0.75;;
54191;SDS011;40101;53.002;6.488;2023-07-31T02:12:05;0.57;;;0.50;;
54191;SDS011;40101;53.002;6.488;2023-07-31T02:14:33;1.17;;;0.80;;
54191;SDS011;40101;53.002;6.488;2023-07-31T02:16:59;0.70;;;0.43;;
54191;SDS011;40101;53.002;6.488;2023-07-31T02:19:25;0.52;;;0.52;;
54191;SDS011;40101;53.002;6.488;2023-07-31T02:21:51;1.52;;;0.80;;
54191;SDS011;40101;53.002;6.488;2023-07-31T02:24:16;0.65;;;0.65;;
54191;SDS011;40101;53.002;6.488;2023-07-31T02:26:45;1.08;;;0.60;;
54191;SDS011;40101;53.002;6.488;2023-07-31T02:29:11;1.42;;;1.00;;
54191;SDS011;40101;53.002;6.488;2023-07-31T02:31:36;0.82;;;0.77;;
54191;SDS011;40101;53.002;6.488;2023-07-31T02:34:02;2.15;;;1.00;;
54191;SDS011;40101;53.002;6.488;2023-07-31T02:36:28;0.60;;;0.60;;
54191;SDS011;40101;53.002;6.488;2023-07-31T02:38:53;0.88;;;0.68;;
54191;SDS011;40101;53.002;6.488;2023-07-31T02:41:19;0.55;;;0.55;;
54191;SDS011;40101;53.002;6.488;2023-07-31T02:43:44;0.45;;;0.45;;
54191;SDS011;40101;53.002;6.488;2023-07-31T02:46:10;0.50;;;0.40;;
54191;SDS011;40101;53.002;6.488;2023-07-31T02:48:36;1.98;;;1.00;;
54191;SDS011;40101;53.002;6.488;2023-07-31T02:51:01;1.48;;;0.40;;
54191;SDS011;40101;53.002;6.488;2023-07-31T02:53:27;2.03;;;0.47;;
54191;SDS011;40101;53.002;6.488;2023-07-31T02:55:53;0.50;;;0.40;;
54191;SDS011;40101;53.002;6.488;2023-07-31T02:58:18;0.45;;;0.40;;
54191;SDS011;40101;53.002;6.488;2023-07-31T03:00:44;1.77;;;0.60;;
54191;SDS011;40101;53.002;6.488;2023-07-31T03:03:10;1.00;;;0.90;;
54191;SDS011;40101;53.002;6.488;2023-07-31T03:05:36;2.28;;;0.52;;
54191;SDS011;40101;53.002;6.488;2023-07-31T03:08:02;1.05;;;0.50;;
54191;SDS011;40101;53.002;6.488;2023-07-31T03:10:29;1.02;;;0.70;;
54191;SDS011;40101;53.002;6.488;2023-07-31T03:12:54;1.75;;;0.65;;
54191;SDS011;40101;53.002;6.488;2023-07-31T03:15:20;2.45;;;0.80;;
54191;SDS011;40101;53.002;6.488;2023-07-31T03:17:45;0.40;;;0.40;;
54191;SDS011;40101;53.002;6.488;2023-07-31T03:20:11;0.80;;;0.45;;
54191;SDS011;40101;53.002;6.488;2023-07-31T03:22:37;0.40;;;0.40;;
54191;SDS011;40101;53.002;6.488;2023-07-31T03:25:03;0.40;;;0.30;;
54191;SDS011;40101;53.002;6.488;2023-07-31T03:27:29;0.47;;;0.47;;
54191;SDS011;40101;53.002;6.488;2023-07-31T03:29:54;1.55;;;0.55;;
54191;SDS011;40101;53.002;6.488;2023-07-31T03:32:20;0.77;;;0.40;;
54191;SDS011;40101;53.002;6.488;2023-07-31T03:34:46;2.55;;;0.63;;
54191;SDS011;40101;53.002;6.488;2023-07-31T03:37:11;1.83;;;0.80;;
54191;SDS011;40101;53.002;6.488;2023-07-31T03:39:37;1.42;;;0.52;;
54191;SDS011;40101;53.002;6.488;2023-07-31T03:42:03;0.95;;;0.43;;
54191;SDS011;40101;53.002;6.488;2023-07-31T03:44:29;0.40;;;0.40;;
54191;SDS011;40101;53.002;6.488;2023-07-31T03:46:54;1.50;;;0.77;;
54191;SDS011;40101;53.002;6.488;2023-07-31T03:49:20;2.47;;;0.50;;
54191;SDS011;40101;53.002;6.488;2023-07-31T03:51:46;1.25;;;0.60;;
54191;SDS011;40101;53.002;6.488;2023-07-31T03:54:11;0.95;;;0.43;;
54191;SDS011;40101;53.002;6.488;2023-07-31T03:56:38;0.50;;;0.30;;
54191;SDS011;40101;53.002;6.488;2023-07-31T03:59:04;1.40;;;0.60;;
54191;SDS011;40101;53.002;6.488;2023-07-31T04:01:29;0.73;;;0.50;;
54191;SDS011;40101;53.002;6.488;2023-07-31T04:03:55;2.13;;;0.55;;
54191;SDS011;40101;53.002;6.488;2023-07-31T04:06:21;2.65;;;0.77;;
54191;SDS011;40101;53.002;6.488;2023-07-31T04:08:46;0.82;;;0.50;;
54191;SDS011;40101;53.002;6.488;2023-07-31T04:11:12;0.80;;;0.50;;
54191;SDS011;40101;53.002;6.488;2023-07-31T04:13:38;0.70;;;0.60;;
54191;SDS011;40101;53.002;6.488;2023-07-31T04:16:04;0.68;;;0.47;;
54191;SDS011;40101;53.002;6.488;2023-07-31T04:18:30;1.10;;;0.80;;
54191;SDS011;40101;53.002;6.488;2023-07-31T04:20:56;1.20;;;0.68;;
54191;SDS011;40101;53.002;6.488;2023-07-31T04:23:23;3.50;;;0.88;;
54191;SDS011;40101;53.002;6.488;2023-07-31T04:25:50;1.65;;;0.60;;
54191;SDS011;40101;53.002;6.488;2023-07-31T04:28:15;2.65;;;0.70;;
54191;SDS011;40101;53.002;6.488;2023-07-31T04:30:41;3.15;;;0.65;;
54191;SDS011;40101;53.002;6.488;2023-07-31T04:33:07;1.48;;;0.80;;
54191;SDS011;40101;53.002;6.488;2023-07-31T04:35:33;1.58;;;0.90;;
54191;SDS011;40101;53.002;6.488;2023-07-31T04:37:58;0.90;;;0.68;;
54191;SDS011;40101;53.002;6.488;2023-07-31T04:40:24;2.00;;;0.80;;
54191;SDS011;40101;53.002;6.488;2023-07-31T04:42:50;1.90;;;0.60;;
54191;SDS011;40101;53.002;6.488;2023-07-31T04:45:15;1.52;;;0.65;;
54191;SDS011;40101;53.002;6.488;2023-07-31T04:47:41;0.80;;;0.52;;
54191;SDS011;40101;53.002;6.488;2023-07-31T04:50:07;1.45;;;0.77;;
54191;SDS011;40101;53.002;6.488;2023-07-31T04:52:33;1.35;;;0.60;;
54191;SDS011;40101;53.002;6.488;2023-07-31T04:54:58;0.50;;;0.50;;
54191;SDS011;40101;53.002;6.488;2023-07-31T04:57:24;2.42;;;0.90;;
54191;SDS011;40101;53.002;6.488;2023-07-31T04:59:49;2.60;;;0.73;;
54191;SDS011;40101;53.002;6.488;2023-07-31T05:02:15;4.60;;;1.20;;
54191;SDS011;40101;53.002;6.488;2023-07-31T05:04:41;4.32;;;0.80;;
54191;SDS011;40101;53.002;6.488;2023-07-31T05:07:06;1.63;;;1.00;;
54191;SDS011;40101;53.002;6.488;2023-07-31T05:09:32;1.73;;;1.23;;
54191;SDS011;40101;53.002;6.488;2023-07-31T05:11:58;2.35;;;1.05;;
54191;SDS011;40101;53.002;6.488;2023-07-31T05:14:23;2.72;;;1.15;;
54191;SDS011;40101;53.002;6.488;2023-07-31T05:16:49;3.63;;;1.75;;
54191;SDS011;40101;53.002;6.488;2023-07-31T05:19:15;6.72;;;1.98;;
54191;SDS011;40101;53.002;6.488;2023-07-31T05:21:40;5.57;;;2.40;;
54191;SDS011;40101;53.002;6.488;2023-07-31T05:24:06;4.32;;;2.50;;
54191;SDS011;40101;53.002;6.488;2023-07-31T05:26:31;8.50;;;3.50;;
54191;SDS011;40101;53.002;6.488;2023-07-31T05:28:57;8.18;;;3.80;;
54191;SDS011;40101;53.002;6.488;2023-07-31T05:31:23;10.13;;;3.67;;
54191;SDS011;40101;53.002;6.488;2023-07-31T05:33:49;12.05;;;4.07;;
54191;SDS011;40101;53.002;6.488;2023-07-31T05:36:16;12.73;;;5.50;;
54191;SDS011;40101;53.002;6.488;2023-07-31T05:38:42;18.10;;;6.43;;
54191;SDS011;40101;53.002;6.488;2023-07-31T05:41:09;16.40;;;5.60;;
54191;SDS011;40101;53.002;6.488;2023-07-31T05:43:36;20.10;;;7.15;;
54191;SDS011;40101;53.002;6.488;2023-07-31T05:46:02;16.08;;;6.38;;
54191;SDS011;40101;53.002;6.488;2023-07-31T05:48:27;20.50;;;7.25;;
54191;SDS011;40101;53.002;6.488;2023-07-31T05:50:53;26.63;;;8.07;;
54191;SDS011;40101;53.002;6.488;2023-07-31T05:53:19;22.33;;;8.63;;
54191;SDS011;40101;53.002;6.488;2023-07-31T05:55:44;24.60;;;8.65;;
54191;SDS011;40101;53.002;6.488;2023-07-31T05:58:10;23.88;;;7.45;;
54191;SDS011;40101;53.002;6.488;2023-07-31T06:00:36;29.25;;;8.20;;
54191;SDS011;40101;53.002;6.488;2023-07-31T06:03:01;28.52;;;9.18;;
54191;SDS011;40101;53.002;6.488;2023-07-31T06:05:27;21.48;;;8.02;;
54191;SDS011;40101;53.002;6.488;2023-07-31T06:07:55;29.40;;;8.50;;
54191;SDS011;40101;53.002;6.488;2023-07-31T06:10:20;24.00;;;8.85;;
54191;SDS011;40101;53.002;6.488;2023-07-31T06:12:46;23.38;;;7.20;;
54191;SDS011;40101;53.002;6.488;2023-07-31T06:15:12;27.52;;;8.25;;
54191;SDS011;40101;53.002;6.488;2023-07-31T06:17:38;22.70;;;7.57;;
54191;SDS011;40101;53.002;6.488;2023-07-31T06:20:03;24.85;;;7.35;;
54191;SDS011;40101;53.002;6.488;2023-07-31T06:22:31;22.60;;;7.95;;
54191;SDS011;40101;53.002;6.488;2023-07-31T06:24:57;23.15;;;7.93;;
54191;SDS011;40101;53.002;6.488;2023-07-31T06:27:23;24.40;;;8.15;;
54191;SDS011;40101;53.002;6.488;2023-07-31T06:29:48;20.20;;;6.43;;
54191;SDS011;40101;53.002;6.488;2023-07-31T06:32:14;17.67;;;6.60;;
54191;SDS011;40101;53.002;6.488;2023-07-31T06:34:40;21.52;;;6.57;;
54191;SDS011;40101;53.002;6.488;2023-07-31T06:37:05;20.48;;;6.95;;
54191;SDS011;40101;53.002;6.488;2023-07-31T06:39:31;19.92;;;6.88;;
54191;SDS011;40101;53.002;6.488;2023-07-31T06:41:57;25.35;;;7.32;;
54191;SDS011;40101;53.002;6.488;2023-07-31T06:44:23;19.67;;;6.15;;
54191;SDS011;40101;53.002;6.488;2023-07-31T06:46:48;20.75;;;7.10;;
54191;SDS011;40101;53.002;6.488;2023-07-31T06:49:14;23.35;;;6.53;;
54191;SDS011;40101;53.002;6.488;2023-07-31T06:51:42;18.88;;;6.90;;
54191;SDS011;40101;53.002;6.488;2023-07-31T06:54:09;16.75;;;5.80;;
54191;SDS011;40101;53.002;6.488;2023-07-31T06:56:34;23.35;;;7.43;;
54191;SDS011;40101;53.002;6.488;2023-07-31T06:59:00;19.30;;;6.88;;
54191;SDS011;40101;53.002;6.488;2023-07-31T07:01:26;23.00;;;7.32;;
54191;SDS011;40101;53.002;6.488;2023-07-31T07:03:53;22.25;;;8.07;;
54191;SDS011;40101;53.002;6.488;2023-07-31T07:06:19;19.20;;;6.47;;
54191;SDS011;40101;53.002;6.488;2023-07-31T07:08:45;18.92;;;6.90;;
54191;SDS011;40101;53.002;6.488;2023-07-31T07:11:10;20.38;;;6.00;;
54191;SDS011;40101;53.002;6.488;2023-07-31T07:13:39;21.63;;;7.55;;
54191;SDS011;40101;53.002;6.488;2023-07-31T07:16:04;18.02;;;5.57;;
54191;SDS011;40101;53.002;6.488;2023-07-31T07:18:30;15.35;;;6.28;;
54191;SDS011;40101;53.002;6.488;2023-07-31T07:20:56;8.80;;;4.15;;
54191;SDS011;40101;53.002;6.488;2023-07-31T07:23:23;8.32;;;3.70;;
54191;SDS011;40101;53.002;6.488;2023-07-31T07:25:49;9.82;;;3.38;;
54191;SDS011;40101;53.002;6.488;2023-07-31T07:28:15;7.88;;;3.10;;
54191;SDS011;40101;53.002;6.488;2023-07-31T07:30:40;8.68;;;3.65;;
54191;SDS011;40101;53.002;6.488;2023-07-31T07:33:06;7.35;;;3.88;;
54191;SDS011;40101;53.002;6.488;2023-07-31T07:35:35;10.98;;;3.10;;
54191;SDS011;40101;53.002;6.488;2023-07-31T07:38:01;4.72;;;2.85;;
54191;SDS011;40101;53.002;6.488;2023-07-31T07:40:28;7.28;;;2.72;;
54191;SDS011;40101;53.002;6.488;2023-07-31T07:42:53;6.18;;;3.28;;
54191;SDS011;40101;53.002;6.488;2023-07-31T07:45:19;4.93;;;2.42;;
54191;SDS011;40101;53.002;6.488;2023-07-31T07:47:45;5.10;;;2.72;;
54191;SDS011;40101;53.002;6.488;2023-07-31T07:50:10;3.50;;;2.22;;
54191;SDS011;40101;53.002;6.488;2023-07-31T07:52:36;5.72;;;2.45;;
54191;SDS011;40101;53.002;6.488;2023-07-31T07:55:02;2.55;;;1.70;;
54191;SDS011;40101;53.002;6.488;2023-07-31T07:57:28;4.38;;;2.10;;
54191;SDS011;40101;53.002;6.488;2023-07-31T07:59:54;2.67;;;1.83;;
54191;SDS011;40101;53.002;6.488;2023-07-31T08:02:20;5.53;;;2.65;;
54191;SDS011;40101;53.002;6.488;2023-07-31T08:04:47;4.53;;;2.28;;
54191;SDS011;40101;53.002;6.488;2023-07-31T08:07:12;4.60;;;2.58;;
54191;SDS011;40101;53.002;6.488;2023-07-31T08:09:38;7.10;;;2.60;;
54191;SDS011;40101;53.002;6.488;2023-07-31T08:12:04;5.95;;;2.15;;
54191;SDS011;40101;53.002;6.488;2023-07-31T08:14:30;4.20;;;2.30;;
54191;SDS011;40101;53.002;6.488;2023-07-31T08:16:56;3.70;;;1.80;;
54191;SDS011;40101;53.002;6.488;2023-07-31T08:19:22;4.43;;;1.92;;
54191;SDS011;40101;53.002;6.488;2023-07-31T08:21:48;2.67;;;1.60;;
54191;SDS011;40101;53.002;6.488;2023-07-31T08:24:13;5.47;;;2.10;;
54191;SDS011;40101;53.002;6.488;2023-07-31T08:26:39;3.55;;;1.83;;
54191;SDS011;40101;53.002;6.488;2023-07-31T08:29:05;2.00;;;1.48;;
54191;SDS011;40101;53.002;6.488;2023-07-31T08:31:34;1.90;;;1.25;;
54191;SDS011;40101;53.002;6.488;2023-07-31T08:33:59;2.55;;;1.30;;
54191;SDS011;40101;53.002;6.488;2023-07-31T08:36:25;2.83;;;1.83;;
54191;SDS011;40101;53.002;6.488;2023-07-31T08:38:51;2.08;;;1.08;;
54191;SDS011;40101;53.002;6.488;2023-07-31T08:41:17;2.22;;;1.02;;
54191;SDS011;40101;53.002;6.488;2023-07-31T08:43:44;3.42;;;1.58;;
54191;SDS011;40101;53.002;6.488;2023-07-31T08:46:14;1.50;;;1.00;;
54191;SDS011;40101;53.002;6.488;2023-07-31T08:48:41;2.22;;;1.35;;
54191;SDS011;40101;53.002;6.488;2023-07-31T08:51:07;2.58;;;1.42;;
54191;SDS011;40101;53.002;6.488;2023-07-31T08:53:34;2.65;;;1.10;;
54191;SDS011;40101;53.002;6.488;2023-07-31T08:56:00;1.35;;;0.88;;
54191;SDS011;40101;53.002;6.488;2023-07-31T08:58:27;1.40;;;0.80;;
54191;SDS011;40101;53.002;6.488;2023-07-31T09:00:57;2.58;;;1.35;;
54191;SDS011;40101;53.002;6.488;2023-07-31T09:03:25;1.25;;;0.93;;
54191;SDS011;40101;53.002;6.488;2023-07-31T09:05:51;1.52;;;1.00;;
54191;SDS011;40101;53.002;6.488;2023-07-31T09:08:19;0.77;;;0.73;;
54191;SDS011;40101;53.002;6.488;2023-07-31T09:10:46;0.85;;;0.60;;
54191;SDS011;40101;53.002;6.488;2023-07-31T09:13:12;1.20;;;0.80;;
54191;SDS011;40101;53.002;6.488;2023-07-31T09:15:39;0.63;;;0.60;;
54191;SDS011;40101;53.002;6.488;2023-07-31T09:18:07;1.17;;;0.65;;
54191;SDS011;40101;53.002;6.488;2023-07-31T09:20:33;1.13;;;0.45;;
54191;SDS011;40101;53.002;6.488;2023-07-31T09:23:07;0.90;;;0.70;;
54191;SDS011;40101;53.002;6.488;2023-07-31T09:25:37;0.70;;;0.60;;
54191;SDS011;40101;53.002;6.488;2023-07-31T09:28:07;3.42;;;0.60;;
54191;SDS011;40101;53.002;6.488;2023-07-31T09:30:47;0.70;;;0.52;;
54191;SDS011;40101;53.002;6.488;2023-07-31T09:33:14;1.25;;;0.70;;
54191;SDS011;40101;53.002;6.488;2023-07-31T09:35:40;1.25;;;0.40;;
54191;SDS011;40101;53.002;6.488;2023-07-31T09:38:07;0.88;;;0.45;;
54191;SDS011;40101;53.002;6.488;2023-07-31T09:40:39;1.05;;;0.32;;
54191;SDS011;40101;53.002;6.488;2023-07-31T09:43:07;0.68;;;0.38;;
54191;SDS011;40101;53.002;6.488;2023-07-31T09:45:36;0.40;;;0.40;;
54191;SDS011;40101;53.002;6.488;2023-07-31T09:48:06;0.47;;;0.43;;
54191;SDS011;40101;53.002;6.488;2023-07-31T09:50:34;0.60;;;0.40;;
54191;SDS011;40101;53.002;6.488;2023-07-31T09:53:08;0.47;;;0.25;;
54191;SDS011;40101;53.002;6.488;2023-07-31T09:55:35;0.20;;;0.20;;
54191;SDS011;40101;53.002;6.488;2023-07-31T09:58:05;0.38;;;0.38;;
54191;SDS011;40101;53.002;6.488;2023-07-31T10:00:33;0.90;;;0.30;;
54191;SDS011;40101;53.002;6.488;2023-07-31T10:03:02;0.45;;;0.43;;
54191;SDS011;40101;53.002;6.488;2023-07-31T10:05:33;0.40;;;0.40;;
54191;SDS011;40101;53.002;6.488;2023-07-31T10:08:01;0.30;;;0.30;;
54191;SDS011;40101;53.002;6.488;2023-07-31T10:10:28;0.40;;;0.40;;
54191;SDS011;40101;53.002;6.488;2023-07-31T10:12:54;0.52;;;0.40;;
54191;SDS011;40101;53.002;6.488;2023-07-31T10:15:22;0.38;;;0.20;;
54191;SDS011;40101;53.002;6.488;2023-07-31T10:17:49;0.75;;;0.40;;
54191;SDS011;40101;53.002;6.488;2023-07-31T10:20:15;0.30;;;0.30;;
54191;SDS011;40101;53.002;6.488;2023-07-31T10:22:42;0.22;;;0.20;;
54191;SDS011;40101;53.002;6.488;2023-07-31T10:25:08;0.30;;;0.30;;
54191;SDS011;40101;53.002;6.488;2023-07-31T10:27:35;0.20;;;0.20;;
54191;SDS011;40101;53.002;6.488;2023-07-31T10:30:02;0.20;;;0.20;;
54191;SDS011;40101;53.002;6.488;2023-07-31T10:32:30;0.15;;;0.15;;
54191;SDS011;40101;53.002;6.488;2023-07-31T10:34:55;0.10;;;0.10;;
54191;SDS011;40101;53.002;6.488;2023-07-31T10:39:55;0.20;;;0.20;;
54191;SDS011;40101;53.002;6.488;2023-07-31T10:42:32;0.30;;;0.20;;
54191;SDS011;40101;53.002;6.488;2023-07-31T10:45:00;0.32;;;0.20;;
54191;SDS011;40101;53.002;6.488;2023-07-31T10:47:27;0.10;;;0.10;;
54191;SDS011;40101;53.002;6.488;2023-07-31T10:50:12;0.20;;;0.10;;
54191;SDS011;40101;53.002;6.488;2023-07-31T10:52:38;0.28;;;0.28;;
54191;SDS011;40101;53.002;6.488;2023-07-31T10:57:48;0.93;;;0.38;;
54191;SDS011;40101;53.002;6.488;2023-07-31T11:00:21;1.08;;;0.70;;
54191;SDS011;40101;53.002;6.488;2023-07-31T11:08:21;0.80;;;0.50;;
54191;SDS011;40101;53.002;6.488;2023-07-31T11:10:52;4.47;;;0.60;;
54191;SDS011;40101;53.002;6.488;2023-07-31T11:13:34;1.50;;;0.50;;
54191;SDS011;40101;53.002;6.488;2023-07-31T11:16:10;2.35;;;0.60;;
54191;SDS011;40101;53.002;6.488;2023-07-31T11:18:41;0.93;;;0.35;;
54191;SDS011;40101;53.002;6.488;2023-07-31T11:21:12;2.20;;;0.32;;
54191;SDS011;40101;53.002;6.488;2023-07-31T11:23:39;1.10;;;0.50;;
54191;SDS011;40101;53.002;6.488;2023-07-31T11:26:05;0.38;;;0.17;;
54191;SDS011;40101;53.002;6.488;2023-07-31T11:28:32;2.17;;;0.50;;
54191;SDS011;40101;53.002;6.488;2023-07-31T11:30:59;1.55;;;0.20;;
54191;SDS011;40101;53.002;6.488;2023-07-31T11:33:25;1.23;;;0.50;;
54191;SDS011;40101;53.002;6.488;2023-07-31T11:35:51;0.35;;;0.17;;
54191;SDS011;40101;53.002;6.488;2023-07-31T11:38:30;0.30;;;0.22;;
54191;SDS011;40101;53.002;6.488;2023-07-31T11:40:59;1.33;;;0.45;;
54191;SDS011;40101;53.002;6.488;2023-07-31T11:43:27;0.15;;;0.15;;
54191;SDS011;40101;53.002;6.488;2023-07-31T11:45:56;0.20;;;0.20;;
54191;SDS011;40101;53.002;6.488;2023-07-31T11:48:25;0.20;;;0.20;;
54191;SDS011;40101;53.002;6.488;2023-07-31T11:50:53;0.57;;;0.20;;
54191;SDS011;40101;53.002;6.488;2023-07-31T11:53:22;0.10;;;0.10;;
54191;SDS011;40101;53.002;6.488;2023-07-31T11:55:53;1.17;;;0.20;;
54191;SDS011;40101;53.002;6.488;2023-07-31T11:58:20;0.22;;;0.17;;
54191;SDS011;40101;53.002;6.488;2023-07-31T12:00:47;0.80;;;0.20;;
54191;SDS011;40101;53.002;6.488;2023-07-31T12:03:14;0.25;;;0.20;;
54191;SDS011;40101;53.002;6.488;2023-07-31T12:05:40;1.92;;;0.30;;
54191;SDS011;40101;53.002;6.488;2023-07-31T12:08:10;0.30;;;0.20;;
54191;SDS011;40101;53.002;6.488;2023-07-31T12:10:40;0.10;;;0.10;;
54191;SDS011;40101;53.002;6.488;2023-07-31T12:13:07;0.93;;;0.30;;
54191;SDS011;40101;53.002;6.488;2023-07-31T12:15:44;0.28;;;0.28;;
54191;SDS011;40101;53.002;6.488;2023-07-31T12:18:12;1.33;;;0.47;;
54191;SDS011;40101;53.002;6.488;2023-07-31T12:20:48;0.30;;;0.20;;
54191;SDS011;40101;53.002;6.488;2023-07-31T12:23:20;0.40;;;0.30;;
54191;SDS011;40101;53.002;6.488;2023-07-31T12:28:40;0.95;;;0.40;;
54191;SDS011;40101;53.002;6.488;2023-07-31T12:31:10;1.30;;;0.50;;
54191;SDS011;40101;53.002;6.488;2023-07-31T12:33:47;1.60;;;0.77;;
54191;SDS011;40101;53.002;6.488;2023-07-31T12:36:15;1.52;;;0.55;;
54191;SDS011;40101;53.002;6.488;2023-07-31T12:38:42;2.00;;;0.93;;
54191;SDS011;40101;53.002;6.488;2023-07-31T12:41:08;4.78;;;0.77;;
54191;SDS011;40101;53.002;6.488;2023-07-31T12:43:35;2.78;;;0.70;;
54191;SDS011;40101;53.002;6.488;2023-07-31T12:46:01;1.17;;;0.70;;
54191;SDS011;40101;53.002;6.488;2023-07-31T12:48:27;3.90;;;0.90;;
54191;SDS011;40101;53.002;6.488;2023-07-31T12:50:53;2.65;;;0.75;;
54191;SDS011;40101;53.002;6.488;2023-07-31T12:53:18;1.55;;;0.80;;
54191;SDS011;40101;53.002;6.488;2023-07-31T12:55:44;3.92;;;0.85;;
54191;SDS011;40101;53.002;6.488;2023-07-31T12:58:09;1.23;;;0.70;;
54191;SDS011;40101;53.002;6.488;2023-07-31T13:00:35;2.20;;;1.17;;
54191;SDS011;40101;53.002;6.488;2023-07-31T13:03:01;2.88;;;1.20;;
54191;SDS011;40101;53.002;6.488;2023-07-31T13:05:28;4.65;;;1.58;;
54191;SDS011;40101;53.002;6.488;2023-07-31T13:07:53;4.85;;;1.00;;
54191;SDS011;40101;53.002;6.488;2023-07-31T13:10:20;5.90;;;1.77;;
54191;SDS011;40101;53.002;6.488;2023-07-31T13:12:47;4.78;;;2.10;;
54191;SDS011;40101;53.002;6.488;2023-07-31T13:15:12;4.53;;;1.98;;
54191;SDS011;40101;53.002;6.488;2023-07-31T13:17:39;5.78;;;2.17;;
54191;SDS011;40101;53.002;6.488;2023-07-31T13:20:05;7.00;;;2.03;;
54191;SDS011;40101;53.002;6.488;2023-07-31T13:22:32;3.70;;;1.77;;
54191;SDS011;40101;53.002;6.488;2023-07-31T13:24:58;5.13;;;2.03;;
54191;SDS011;40101;53.002;6.488;2023-07-31T13:27:23;3.38;;;1.65;;
54191;SDS011;40101;53.002;6.488;2023-07-31T13:29:49;9.45;;;1.90;;
54191;SDS011;40101;53.002;6.488;2023-07-31T13:32:18;3.42;;;1.50;;
54191;SDS011;40101;53.002;6.488;2023-07-31T13:34:45;4.43;;;1.70;;
54191;SDS011;40101;53.002;6.488;2023-07-31T13:37:11;6.47;;;1.88;;
54191;SDS011;40101;53.002;6.488;2023-07-31T13:39:37;6.40;;;1.80;;
54191;SDS011;40101;53.002;6.488;2023-07-31T13:42:03;4.22;;;2.00;;
54191;SDS011;40101;53.002;6.488;2023-07-31T13:44:31;4.97;;;2.03;;
54191;SDS011;40101;53.002;6.488;2023-07-31T13:46:58;5.65;;;1.98;;
54191;SDS011;40101;53.002;6.488;2023-07-31T13:49:23;5.93;;;1.80;;
54191;SDS011;40101;53.002;6.488;2023-07-31T13:51:49;6.55;;;2.35;;
54191;SDS011;40101;53.002;6.488;2023-07-31T13:54:15;5.50;;;2.03;;
54191;SDS011;40101;53.002;6.488;2023-07-31T13:56:44;5.10;;;2.83;;
54191;SDS011;40101;53.002;6.488;2023-07-31T13:59:10;5.13;;;2.17;;
54191;SDS011;40101;53.002;6.488;2023-07-31T14:01:36;9.13;;;3.00;;
54191;SDS011;40101;53.002;6.488;2023-07-31T14:04:02;6.65;;;1.98;;
54191;SDS011;40101;53.002;6.488;2023-07-31T14:06:28;7.63;;;2.35;;
54191;SDS011;40101;53.002;6.488;2023-07-31T14:08:53;11.85;;;2.83;;
54191;SDS011;40101;53.002;6.488;2023-07-31T14:11:20;7.95;;;2.70;;
54191;SDS011;40101;53.002;6.488;2023-07-31T14:13:52;8.45;;;2.03;;
54191;SDS011;40101;53.002;6.488;2023-07-31T14:16:18;7.38;;;2.75;;
54191;SDS011;40101;53.002;6.488;2023-07-31T14:18:43;8.98;;;2.83;;
54191;SDS011;40101;53.002;6.488;2023-07-31T14:21:10;8.25;;;2.83;;
54191;SDS011;40101;53.002;6.488;2023-07-31T14:23:37;8.60;;;2.75;;
54191;SDS011;40101;53.002;6.488;2023-07-31T14:26:02;13.75;;;2.63;;
54191;SDS011;40101;53.002;6.488;2023-07-31T14:28:28;9.10;;;2.78;;
54191;SDS011;40101;53.002;6.488;2023-07-31T14:30:54;6.20;;;2.03;;
54191;SDS011;40101;53.002;6.488;2023-07-31T14:33:19;6.85;;;2.53;;
54191;SDS011;40101;53.002;6.488;2023-07-31T14:35:45;9.98;;;3.70;;
54191;SDS011;40101;53.002;6.488;2023-07-31T14:38:10;7.35;;;2.20;;
54191;SDS011;40101;53.002;6.488;2023-07-31T14:40:36;5.93;;;2.20;;
54191;SDS011;40101;53.002;6.488;2023-07-31T14:43:03;7.80;;;2.95;;
54191;SDS011;40101;53.002;6.488;2023-07-31T14:45:29;6.63;;;2.28;;
54191;SDS011;40101;53.002;6.488;2023-07-31T14:47:55;6.63;;;2.28;;
54191;SDS011;40101;53.002;6.488;2023-07-31T14:50:20;7.30;;;2.50;;
54191;SDS011;40101;53.002;6.488;2023-07-31T14:52:48;4.18;;;2.15;;
54191;SDS011;40101;53.002;6.488;2023-07-31T14:55:14;6.60;;;2.80;;
54191;SDS011;40101;53.002;6.488;2023-07-31T14:57:40;5.25;;;2.47;;
54191;SDS011;40101;53.002;6.488;2023-07-31T15:00:05;7.18;;;2.22;;
54191;SDS011;40101;53.002;6.488;2023-07-31T15:02:35;5.35;;;1.88;;
54191;SDS011;40101;53.002;6.488;2023-07-31T15:05:04;7.88;;;2.28;;